createdAt,value
2023-03-08T00:01:17.538Z,5.00
2023-03-08T00:03:46.123Z,5.00
2023-03-08T00:06:16.989Z,4.90
2023-03-08T00:08:48.466Z,4.90
2023-03-08T00:11:17.680Z,4.90
2023-03-08T00:13:45.974Z,4.80
2023-03-08T00:16:14.652Z,4.80
2023-03-08T00:18:43.437Z,4.70
2023-03-08T00:21:14.494Z,4.70
2023-03-08T00:23:43.253Z,4.60
2023-03-08T00:26:13.934Z,4.50
2023-03-08T00:28:42.751Z,4.50
2023-03-08T00:31:13.424Z,4.40
2023-03-08T00:33:41.966Z,4.40
2023-03-08T00:36:14.772Z,4.40
2023-03-08T00:38:43.503Z,4.40
2023-03-08T00:41:13.193Z,4.40
2023-03-08T00:43:42.357Z,4.40
2023-03-08T00:46:11.012Z,4.40
2023-03-08T00:48:39.872Z,4.50
2023-03-08T00:51:08.339Z,4.50
2023-03-08T00:53:36.629Z,4.50
2023-03-08T00:56:05.467Z,4.50
2023-03-08T00:58:35.236Z,4.50
2023-03-08T01:01:05.396Z,4.50
2023-03-08T01:03:33.898Z,4.50
2023-03-08T01:06:07.704Z,4.50
2023-03-08T01:08:36.602Z,4.50
2023-03-08T01:11:05.262Z,4.50
2023-03-08T01:13:36.319Z,4.50
2023-03-08T01:16:04.620Z,4.50
2023-03-08T01:18:33.630Z,4.50
2023-03-08T01:21:03.726Z,4.50
2023-03-08T01:23:32.378Z,4.50
2023-03-08T01:26:03.100Z,4.50
2023-03-08T01:28:32.322Z,4.40
2023-03-08T01:31:07.874Z,4.40
2023-03-08T01:33:38.589Z,4.40
2023-03-08T01:36:08.556Z,4.40
2023-03-08T01:38:37.211Z,4.40
2023-03-08T01:41:07.131Z,4.40
2023-03-08T01:43:37.970Z,4.40
2023-03-08T01:46:28.578Z,4.40
2023-03-08T01:49:08.556Z,4.30
2023-03-08T01:51:40.168Z,4.30
2023-03-08T01:54:12.025Z,4.30
2023-03-08T01:56:41.870Z,4.30
2023-03-08T01:59:10.335Z,4.30
2023-03-08T02:01:40.908Z,4.20
2023-03-08T02:04:11.696Z,4.20
2023-03-08T02:06:40.617Z,4.20
2023-03-08T02:09:09.309Z,4.20
2023-03-08T02:11:40.041Z,4.20
2023-03-08T02:14:08.328Z,4.20
2023-03-08T02:16:37.261Z,4.20
2023-03-08T02:19:12.131Z,4.20
2023-03-08T02:21:40.390Z,4.20
2023-03-08T02:24:20.036Z,4.20
2023-03-08T02:26:50.868Z,4.30
2023-03-08T02:29:19.334Z,4.20
2023-03-08T02:31:48.224Z,4.20
2023-03-08T02:34:16.437Z,4.20
2023-03-08T02:36:44.684Z,4.20
2023-03-08T02:39:14.627Z,4.20
2023-03-08T02:41:42.848Z,4.10
2023-03-08T02:44:11.241Z,4.10
2023-03-08T02:46:39.612Z,4.00
2023-03-08T02:49:07.954Z,4.00
2023-03-08T02:51:36.315Z,4.00
2023-03-08T02:54:04.598Z,4.00
2023-03-08T02:56:34.311Z,4.00
2023-03-08T02:59:02.585Z,4.10
2023-03-08T03:01:30.973Z,4.00
2023-03-08T03:04:00.735Z,4.00
2023-03-08T03:06:29.090Z,3.90
2023-03-08T03:08:58.338Z,3.90
2023-03-08T03:11:27.087Z,3.80
2023-03-08T03:13:58.517Z,3.80
2023-03-08T03:16:31.411Z,3.80
2023-03-08T03:19:00.733Z,3.80
2023-03-08T03:21:29.106Z,3.70
2023-03-08T03:23:57.631Z,3.80
2023-03-08T03:26:33.963Z,3.80
2023-03-08T03:29:03.714Z,3.80
2023-03-08T03:31:35.926Z,3.80
2023-03-08T03:34:05.217Z,3.80
2023-03-08T03:36:34.701Z,3.80
2023-03-08T03:39:03.780Z,3.80
2023-03-08T03:41:36.847Z,3.80
2023-03-08T03:44:11.945Z,3.80
2023-03-08T03:46:41.748Z,3.80
2023-03-08T03:49:12.136Z,3.80
2023-03-08T03:51:43.536Z,3.80
2023-03-08T03:54:41.032Z,3.80
2023-03-08T03:57:09.515Z,3.90
2023-03-08T03:59:42.811Z,3.90
2023-03-08T04:02:11.131Z,3.90
2023-03-08T04:04:45.268Z,3.90
2023-03-08T04:07:16.051Z,4.00
2023-03-08T04:09:51.634Z,4.00
2023-03-08T04:12:21.177Z,4.10
2023-03-08T04:14:51.705Z,4.10
2023-03-08T04:17:19.976Z,4.20
2023-03-08T04:19:51.807Z,4.20
2023-03-08T04:22:21.431Z,4.30
2023-03-08T04:24:54.278Z,4.30
2023-03-08T04:27:32.204Z,4.30
2023-03-08T04:30:03.313Z,4.40
2023-03-08T04:32:33.272Z,4.40
2023-03-08T04:35:01.920Z,4.50
2023-03-08T04:37:32.439Z,4.50
2023-03-08T04:40:10.464Z,4.60
2023-03-08T04:42:45.889Z,4.70
2023-03-08T04:45:19.158Z,4.70
2023-03-08T04:47:47.479Z,4.80
2023-03-08T04:50:15.828Z,4.90
2023-03-08T04:52:44.449Z,4.90
2023-03-08T04:55:13.447Z,5.00
2023-03-08T04:57:41.963Z,5.00
2023-03-08T05:00:11.491Z,5.00
2023-03-08T05:02:42.710Z,5.10
2023-03-08T05:05:15.841Z,5.10
2023-03-08T05:07:45.540Z,5.10
2023-03-08T05:10:13.921Z,5.10
2023-03-08T05:12:43.103Z,5.10
2023-03-08T05:15:12.439Z,5.10
2023-03-08T05:17:42.078Z,5.20
2023-03-08T05:20:12.060Z,5.20
2023-03-08T05:22:57.272Z,5.20
2023-03-08T05:25:32.224Z,5.20
2023-03-08T05:28:01.690Z,5.20
2023-03-08T05:30:30.110Z,5.20
2023-03-08T05:33:00.144Z,5.20
2023-03-08T05:35:28.754Z,5.30
2023-03-08T05:37:57.635Z,5.30
2023-03-08T05:40:26.617Z,5.30
2023-03-08T05:42:56.066Z,5.30
2023-03-08T05:45:26.585Z,5.30
2023-03-08T05:47:56.287Z,5.30
2023-03-08T05:50:27.171Z,5.30
2023-03-08T05:52:55.622Z,5.20
2023-03-08T05:55:28.056Z,5.20
2023-03-08T05:57:57.104Z,5.20
2023-03-08T06:00:26.418Z,5.20
2023-03-08T06:02:59.658Z,5.20
2023-03-08T06:05:29.837Z,5.10
2023-03-08T06:07:59.923Z,5.10
2023-03-08T06:10:28.345Z,5.10
2023-03-08T06:12:56.953Z,5.20
2023-03-08T06:15:26.324Z,5.20
2023-03-08T06:17:55.118Z,5.20
2023-03-08T06:20:25.920Z,5.20
2023-03-08T06:22:55.618Z,5.20
2023-03-08T06:25:23.897Z,5.20
2023-03-08T06:27:52.325Z,5.20
2023-03-08T06:30:29.553Z,5.20
2023-03-08T06:32:58.802Z,5.20
2023-03-08T06:35:27.175Z,5.20
2023-03-08T06:38:01.196Z,5.10
2023-03-08T06:40:29.713Z,5.10
2023-03-08T06:42:59.079Z,5.00
2023-03-08T06:45:28.395Z,5.00
2023-03-08T06:47:57.047Z,4.90
2023-03-08T06:50:25.640Z,4.80
2023-03-08T06:52:55.839Z,4.90
2023-03-08T06:55:37.620Z,4.90
2023-03-08T06:58:06.397Z,4.90
2023-03-08T07:00:35.106Z,5.00
2023-03-08T07:03:03.865Z,5.00
2023-03-08T07:05:32.657Z,5.10
2023-03-08T07:08:01.042Z,5.10
2023-03-08T07:10:29.713Z,5.30
2023-03-08T07:13:02.269Z,5.40
2023-03-08T07:15:30.643Z,5.40
2023-03-08T07:17:59.713Z,5.50
2023-03-08T07:20:28.720Z,5.40
2023-03-08T07:23:01.625Z,5.50
2023-03-08T07:25:29.934Z,5.60
2023-03-08T07:28:01.695Z,5.60
2023-03-08T07:30:30.026Z,5.70
2023-03-08T07:32:58.414Z,5.70
2023-03-08T07:35:26.899Z,5.70
2023-03-08T07:37:55.378Z,5.80
2023-03-08T07:40:23.843Z,5.90
2023-03-08T07:42:52.452Z,5.90
2023-03-08T07:45:39.566Z,6.00
2023-03-08T07:48:08.023Z,6.10
2023-03-08T07:50:36.405Z,6.20
2023-03-08T07:53:05.476Z,6.20
2023-03-08T07:55:33.732Z,6.20
2023-03-08T07:58:01.933Z,6.20
2023-03-08T08:00:30.392Z,6.10
2023-03-08T08:03:00.025Z,6.00
2023-03-08T08:05:28.486Z,6.00
2023-03-08T08:07:56.800Z,6.00
2023-03-08T08:10:25.320Z,5.90
2023-03-08T08:12:53.524Z,5.80
2023-03-08T08:15:23.526Z,5.70
2023-03-08T08:17:51.831Z,5.70
2023-03-08T08:20:21.575Z,5.70
2023-03-08T08:22:53.250Z,5.70
2023-03-08T08:25:22.558Z,5.70
2023-03-08T08:27:52.417Z,5.70
2023-03-08T08:30:23.256Z,5.80
2023-03-08T08:32:51.949Z,5.80
2023-03-08T08:35:23.944Z,5.90
2023-03-08T08:37:55.326Z,6.00
2023-03-08T08:40:23.818Z,6.20
2023-03-08T08:42:52.213Z,6.40
2023-03-08T08:45:20.485Z,6.50
2023-03-08T08:47:48.908Z,6.60
2023-03-08T08:50:17.982Z,6.70
2023-03-08T08:52:47.960Z,6.90
2023-03-08T08:55:16.541Z,7.00
2023-03-08T08:57:44.922Z,7.20
2023-03-08T09:00:14.484Z,7.30
2023-03-08T09:02:42.803Z,7.40
2023-03-08T09:05:11.272Z,7.50
2023-03-08T09:07:39.823Z,7.50
2023-03-08T09:10:11.482Z,7.50
2023-03-08T09:12:40.175Z,7.50
2023-03-08T09:15:10.600Z,7.60
2023-03-08T09:17:39.566Z,7.70
2023-03-08T09:20:10.020Z,7.80
2023-03-08T09:22:38.717Z,7.90
2023-03-08T09:25:07.654Z,8.10
2023-03-08T09:27:38.572Z,8.10
2023-03-08T09:30:09.929Z,8.20
2023-03-08T09:32:38.482Z,8.30
2023-03-08T09:35:07.498Z,8.40
2023-03-08T09:37:35.901Z,8.40
2023-03-08T09:40:09.481Z,8.50
2023-03-08T09:42:39.905Z,8.50
2023-03-08T09:45:20.488Z,8.60
2023-03-08T09:47:52.081Z,8.70
2023-03-08T09:50:36.961Z,8.80
2023-03-08T09:53:12.002Z,8.90
2023-03-08T09:55:46.895Z,8.90
2023-03-08T09:58:23.009Z,9.00
2023-03-08T10:00:51.838Z,9.10
2023-03-08T10:03:36.525Z,9.20
2023-03-08T10:06:14.164Z,9.40
2023-03-08T10:08:49.909Z,9.70
2023-03-08T10:11:24.797Z,9.80
2023-03-08T10:13:57.661Z,10.00
2023-03-08T10:16:28.575Z,10.10
2023-03-08T10:19:02.494Z,10.20
2023-03-08T10:21:33.951Z,10.40
2023-03-08T10:24:13.086Z,10.40
2023-03-08T10:26:42.296Z,10.60
2023-03-08T10:29:12.840Z,10.60
2023-03-08T10:31:43.662Z,10.70
2023-03-08T10:34:15.229Z,10.80
2023-03-08T10:36:52.328Z,10.90
2023-03-08T10:39:22.159Z,11.00
2023-03-08T10:41:53.943Z,11.10
2023-03-08T10:44:39.973Z,11.20
2023-03-08T10:47:23.904Z,11.30
2023-03-08T10:50:20.885Z,11.40
2023-03-08T10:52:51.226Z,11.40
2023-03-08T10:55:21.765Z,11.40
2023-03-08T10:57:54.083Z,11.40
2023-03-08T11:00:33.478Z,11.30
2023-03-08T11:03:14.626Z,11.20
2023-03-08T11:05:54.309Z,11.10
2023-03-08T11:08:28.348Z,11.00
2023-03-08T11:11:09.011Z,11.00
2023-03-08T11:13:41.833Z,10.90
2023-03-08T11:16:36.120Z,10.90
2023-03-08T11:19:12.434Z,11.00
2023-03-08T11:21:51.079Z,11.00
2023-03-08T11:24:31.884Z,11.00
2023-03-08T11:27:16.191Z,11.10
2023-03-08T11:29:59.504Z,11.10
2023-03-08T11:32:42.264Z,11.20
2023-03-08T11:35:24.625Z,11.30
2023-03-08T11:38:01.236Z,11.40
2023-03-08T11:40:36.388Z,11.50
2023-03-08T11:43:17.477Z,11.50
2023-03-08T11:45:54.579Z,11.70
2023-03-08T11:48:58.612Z,11.80
2023-03-08T11:51:34.894Z,11.90
2023-03-08T11:54:17.042Z,12.00
2023-03-08T11:56:49.330Z,12.00
2023-03-08T11:59:32.217Z,12.10
2023-03-08T12:02:03.906Z,12.10
2023-03-08T12:04:40.548Z,12.20
2023-03-08T12:07:17.774Z,12.20
2023-03-08T12:09:54.914Z,12.30
2023-03-08T12:12:28.088Z,12.40
2023-03-08T12:15:00.009Z,12.40
2023-03-08T12:17:33.715Z,12.40
2023-03-08T12:20:07.521Z,12.40
2023-03-08T12:22:46.028Z,12.40
2023-03-08T12:25:24.257Z,12.50
2023-03-08T12:27:57.791Z,12.40
2023-03-08T12:30:37.028Z,12.50
2023-03-08T12:33:07.027Z,12.50
2023-03-08T12:35:38.507Z,12.50
2023-03-08T12:38:27.838Z,12.60
2023-03-08T12:40:56.952Z,12.60
2023-03-08T12:43:33.273Z,12.60
2023-03-08T12:46:08.081Z,12.60
2023-03-08T12:48:38.920Z,12.60
2023-03-08T12:51:22.065Z,12.60
2023-03-08T12:53:59.630Z,12.60
2023-03-08T12:56:32.201Z,12.60
2023-03-08T12:59:02.517Z,12.60
2023-03-08T13:01:35.189Z,12.60
2023-03-08T13:04:05.280Z,12.60
2023-03-08T13:06:59.301Z,12.60
2023-03-08T13:09:29.899Z,12.60
2023-03-08T13:12:10.097Z,12.50
2023-03-08T13:14:43.876Z,12.50
2023-03-08T13:17:35.443Z,12.60
2023-03-08T13:20:11.332Z,12.60
2023-03-08T13:22:48.345Z,12.60
2023-03-08T13:25:28.198Z,12.70
2023-03-08T13:28:04.854Z,12.80
2023-03-08T13:30:35.930Z,12.80
2023-03-08T13:33:09.515Z,12.90
2023-03-08T13:35:38.368Z,12.90
2023-03-08T13:38:08.465Z,12.90
2023-03-08T13:40:36.952Z,12.90
2023-03-08T13:43:08.602Z,12.90
2023-03-08T13:45:37.145Z,12.80
2023-03-08T13:48:10.060Z,12.80
2023-03-08T13:50:43.649Z,12.80
2023-03-08T13:53:19.096Z,12.90
2023-03-08T13:55:51.680Z,12.90
2023-03-08T13:58:29.054Z,12.90
2023-03-08T14:01:03.098Z,12.90
2023-03-08T14:03:33.555Z,13.00
2023-03-08T14:06:02.258Z,13.10
2023-03-08T14:08:31.990Z,13.10
2023-03-08T14:11:03.540Z,13.10
2023-03-08T14:13:34.557Z,13.10
2023-03-08T14:16:06.146Z,13.30
2023-03-08T14:18:36.714Z,13.50
2023-03-08T14:21:08.827Z,13.50
2023-03-08T14:23:43.996Z,13.50
2023-03-08T14:26:35.475Z,13.70
2023-03-08T14:29:18.780Z,13.80
2023-03-08T14:32:04.356Z,13.80
2023-03-08T14:34:36.484Z,13.80
2023-03-08T14:37:08.768Z,13.80
2023-03-08T14:39:40.717Z,13.90
2023-03-08T14:42:18.860Z,13.90
2023-03-08T14:44:52.618Z,13.90
2023-03-08T14:47:23.964Z,13.80
2023-03-08T14:50:02.678Z,13.80
2023-03-08T14:52:33.334Z,13.90
2023-03-08T14:55:04.570Z,13.90
2023-03-08T14:57:32.984Z,14.00
2023-03-08T15:00:14.055Z,14.10
2023-03-08T15:02:43.117Z,14.10
2023-03-08T15:05:25.532Z,14.20
2023-03-08T15:07:57.969Z,14.30
2023-03-08T15:10:30.224Z,14.30
2023-03-08T15:12:59.458Z,14.30
2023-03-08T15:15:27.875Z,14.40
2023-03-08T15:17:56.571Z,14.20
2023-03-08T15:20:25.260Z,14.20
2023-03-08T15:22:56.615Z,14.30
2023-03-08T15:25:28.745Z,14.30
2023-03-08T15:27:57.751Z,14.30
2023-03-08T15:30:28.107Z,14.30
2023-03-08T15:32:59.381Z,14.20
2023-03-08T15:35:27.801Z,14.10
2023-03-08T15:37:56.308Z,14.10
2023-03-08T15:40:28.658Z,14.10
2023-03-08T15:42:56.925Z,14.10
2023-03-08T15:45:25.672Z,14.00
2023-03-08T15:47:58.451Z,14.00
2023-03-08T15:50:27.534Z,13.90
2023-03-08T15:52:56.264Z,14.00
2023-03-08T15:55:26.165Z,14.00
2023-03-08T15:57:55.908Z,14.10
2023-03-08T16:00:25.866Z,14.10
2023-03-08T16:02:54.348Z,14.20
2023-03-08T16:05:25.077Z,14.10
2023-03-08T16:07:57.734Z,14.10
2023-03-08T16:10:26.648Z,14.10
2023-03-08T16:12:56.211Z,14.00
2023-03-08T16:15:24.365Z,14.00
2023-03-08T16:17:52.587Z,14.00
2023-03-08T16:20:23.236Z,14.00
2023-03-08T16:22:51.952Z,14.00
2023-03-08T16:25:22.561Z,13.90
2023-03-08T16:27:51.810Z,13.90
2023-03-08T16:30:21.970Z,13.90
2023-03-08T16:32:53.368Z,13.90
2023-03-08T16:35:22.000Z,13.90
2023-03-08T16:37:50.175Z,14.00
2023-03-08T16:40:18.737Z,14.00
2023-03-08T16:42:48.284Z,14.30
2023-03-08T16:45:17.267Z,14.70
2023-03-08T16:47:46.873Z,14.80
2023-03-08T16:50:15.616Z,14.90
2023-03-08T16:52:43.948Z,14.80
2023-03-08T16:55:13.305Z,14.50
2023-03-08T16:57:41.669Z,14.30
2023-03-08T17:00:12.714Z,14.10
2023-03-08T17:02:41.613Z,13.90
2023-03-08T17:05:13.983Z,13.80
2023-03-08T17:07:42.235Z,13.60
2023-03-08T17:10:11.648Z,13.50
2023-03-08T17:12:41.557Z,13.40
2023-03-08T17:15:10.963Z,13.40
2023-03-08T17:17:39.821Z,13.30
2023-03-08T17:20:09.311Z,13.20
2023-03-08T17:22:38.856Z,13.20
2023-03-08T17:25:08.218Z,13.00
2023-03-08T17:27:36.478Z,13.00
2023-03-08T17:30:05.760Z,12.90
2023-03-08T17:32:34.115Z,12.80
2023-03-08T17:35:02.545Z,12.80
2023-03-08T17:37:31.171Z,12.70
2023-03-08T17:40:00.751Z,12.70
2023-03-08T17:42:29.014Z,12.60
2023-03-08T17:44:57.141Z,12.60
2023-03-08T17:47:25.475Z,12.60
2023-03-08T17:49:53.775Z,12.50
2023-03-08T17:52:22.515Z,12.50
2023-03-08T17:54:50.679Z,12.40
2023-03-08T17:57:21.621Z,12.40
2023-03-08T17:59:50.578Z,12.40
2023-03-08T18:02:19.684Z,12.40
2023-03-08T18:04:49.798Z,12.40
2023-03-08T18:07:21.003Z,12.40
2023-03-08T18:09:49.676Z,12.30
2023-03-08T18:12:17.961Z,12.30
2023-03-08T18:14:50.679Z,12.30
2023-03-08T18:17:19.290Z,12.30
2023-03-08T18:19:47.837Z,12.30
2023-03-08T18:22:16.602Z,12.30
2023-03-08T18:24:44.828Z,12.30
2023-03-08T18:27:13.035Z,12.30
2023-03-08T18:29:41.357Z,12.30
2023-03-08T18:32:11.095Z,12.20
2023-03-08T18:34:39.981Z,12.20
2023-03-08T18:37:09.566Z,12.10
2023-03-08T18:39:37.886Z,12.10
2023-03-08T18:42:06.137Z,12.10
2023-03-08T18:44:34.559Z,12.00
2023-03-08T18:47:03.045Z,11.90
2023-03-08T18:49:34.929Z,11.90
2023-03-08T18:52:04.792Z,11.90
2023-03-08T18:54:34.177Z,11.90
2023-03-08T18:57:02.513Z,12.00
2023-03-08T18:59:33.272Z,12.00
2023-03-08T19:02:02.133Z,12.00
2023-03-08T19:04:32.264Z,12.00
2023-03-08T19:07:01.106Z,12.00
2023-03-08T19:09:29.905Z,12.00
2023-03-08T19:11:58.217Z,11.90
2023-03-08T19:14:26.487Z,11.90
2023-03-08T19:16:55.164Z,11.80
2023-03-08T19:19:23.463Z,11.70
2023-03-08T19:21:53.818Z,11.70
2023-03-08T19:24:22.562Z,11.70
2023-03-08T19:26:53.223Z,11.70
2023-03-08T19:29:23.056Z,11.70
2023-03-08T19:31:54.152Z,11.70
2023-03-08T19:34:25.118Z,11.70
2023-03-08T19:36:55.438Z,11.80
2023-03-08T19:39:27.778Z,11.80
2023-03-08T19:41:57.821Z,11.90
2023-03-08T19:44:27.420Z,11.90
2023-03-08T19:46:56.742Z,12.00
2023-03-08T19:49:27.092Z,12.00
2023-03-08T19:51:59.044Z,12.00
2023-03-08T19:54:28.509Z,12.00
2023-03-08T19:56:57.652Z,11.90
2023-03-08T19:59:27.138Z,12.00
2023-03-08T20:01:56.582Z,12.00
2023-03-08T20:04:25.288Z,12.00
2023-03-08T20:06:53.805Z,12.10
2023-03-08T20:09:23.883Z,12.10
2023-03-08T20:11:57.653Z,12.00
2023-03-08T20:14:28.141Z,12.00
2023-03-08T20:16:56.983Z,11.80
2023-03-08T20:19:25.920Z,11.70
2023-03-08T20:21:54.231Z,11.70
2023-03-08T20:24:24.295Z,11.60
2023-03-08T20:26:52.977Z,11.60
2023-03-08T20:29:21.612Z,11.70
2023-03-08T20:31:50.332Z,11.70
2023-03-08T20:34:20.199Z,11.70
2023-03-08T20:36:48.559Z,11.60
2023-03-08T20:39:20.525Z,11.50
2023-03-08T20:41:50.224Z,11.40
2023-03-08T20:44:18.823Z,11.20
2023-03-08T20:46:47.151Z,11.10
2023-03-08T20:49:16.813Z,11.10
2023-03-08T20:51:45.141Z,11.10
2023-03-08T20:54:15.769Z,11.00
2023-03-08T20:56:43.986Z,11.00
2023-03-08T20:59:15.814Z,11.00
2023-03-08T21:01:45.094Z,11.00
2023-03-08T21:04:13.404Z,11.00
2023-03-08T21:06:42.216Z,11.00
2023-03-08T21:09:10.435Z,11.00
2023-03-08T21:11:39.004Z,11.00
2023-03-08T21:14:07.853Z,11.00
2023-03-08T21:16:37.530Z,11.00
2023-03-08T21:19:06.224Z,11.00
2023-03-08T21:21:36.601Z,11.10
2023-03-08T21:24:07.043Z,11.10
2023-03-08T21:26:36.248Z,11.10
2023-03-08T21:29:07.080Z,11.10
2023-03-08T21:31:38.608Z,11.20
2023-03-08T21:34:08.028Z,11.30
2023-03-08T21:36:38.058Z,11.30
2023-03-08T21:39:07.573Z,11.30
2023-03-08T21:41:37.934Z,11.40
2023-03-08T21:44:09.439Z,11.40
2023-03-08T21:46:39.870Z,11.50
2023-03-08T21:49:15.915Z,11.50
2023-03-08T21:51:44.417Z,11.50
2023-03-08T21:54:12.676Z,11.60
2023-03-08T21:56:41.068Z,11.60
2023-03-08T21:59:09.256Z,11.60
2023-03-08T22:01:39.058Z,11.70
2023-03-08T22:04:07.830Z,11.70
2023-03-08T22:06:37.669Z,11.70
2023-03-08T22:09:06.082Z,11.60
2023-03-08T22:11:34.354Z,11.40
2023-03-08T22:14:03.236Z,11.20
2023-03-08T22:16:32.723Z,11.10
2023-03-08T22:19:03.166Z,11.00
2023-03-08T22:21:31.797Z,10.90
2023-03-08T22:24:02.069Z,10.90
2023-03-08T22:26:32.073Z,10.90
2023-03-08T22:29:00.859Z,10.80
2023-03-08T22:31:31.570Z,10.80
2023-03-08T22:34:01.290Z,10.80
2023-03-08T22:36:32.232Z,10.80
2023-03-08T22:39:00.543Z,10.80
2023-03-08T22:41:29.548Z,10.70
2023-03-08T22:43:57.983Z,10.70
2023-03-08T22:46:27.933Z,10.80
2023-03-08T22:48:58.188Z,10.80
2023-03-08T22:51:28.672Z,10.80
2023-03-08T22:53:59.087Z,10.80
2023-03-08T22:56:30.128Z,10.80
2023-03-08T22:58:58.816Z,10.80
2023-03-08T23:01:29.004Z,10.80
2023-03-08T23:03:59.511Z,10.80
2023-03-08T23:06:29.826Z,10.90
2023-03-08T23:09:01.269Z,10.80
2023-03-08T23:11:30.365Z,10.90
2023-03-08T23:13:58.645Z,10.90
2023-03-08T23:16:27.875Z,10.90
2023-03-08T23:18:56.892Z,10.90
2023-03-08T23:21:27.697Z,10.90
2023-03-08T23:23:56.410Z,10.80
2023-03-08T23:26:29.044Z,10.80
2023-03-08T23:28:58.962Z,10.80
2023-03-08T23:31:29.677Z,10.80
2023-03-08T23:34:00.591Z,10.70
2023-03-08T23:36:30.657Z,10.70
2023-03-08T23:39:01.784Z,10.70
2023-03-08T23:41:32.930Z,10.70
2023-03-08T23:44:02.956Z,10.70
2023-03-08T23:46:32.413Z,10.60
2023-03-08T23:49:02.232Z,10.60
2023-03-08T23:51:33.069Z,10.60
2023-03-08T23:54:03.120Z,10.60
2023-03-08T23:56:38.077Z,10.60
2023-03-08T23:59:09.268Z,10.60
